Historique des stations

Station météo de Lys-Saint-Georges

Altitude de la station : 220 m







Données météorologiques pour le 18/08/2022
Date
Heure
Températures Humidité Point de rosée Vitesse
du vent
Direction Rafales Windchill Pression Pluviométrie
Cumul
Date
Heure
Températures Humidité Point de rosée Vitesse
du vent
Direction Rafales Windchill Pression Pluviométrie
Cumul
18/08/2022 15:1024.8 °C51 %14.0 °C9 km/hO19 km/h24.81015 hPa0.0 mm
18/08/2022 15:0024.8 °C51 %14.0 °C9 km/hONO16 km/h24.81015 hPa0.0 mm
18/08/2022 14:4025.0 °C52 %14.4 °C8 km/hONO21 km/h25.01015 hPa0.0 mm
18/08/2022 14:3024.8 °C53 %14.6 °C7 km/hO18 km/h24.81015 hPa0.0 mm
18/08/2022 14:1024.7 °C54 %14.8 °C6 km/hNNO19 km/h24.71015 hPa0.0 mm
18/08/2022 14:0023.8 °C57 %14.7 °C5 km/hNNO16 km/h23.81015 hPa0.0 mm
18/08/2022 13:4024.1 °C58 %15.3 °C5 km/hO18 km/h24.11015 hPa0.0 mm
18/08/2022 13:3023.8 °C59 %15.3 °C5 km/hO15 km/h23.81015 hPa0.0 mm
18/08/2022 13:0023.2 °C64 %16.0 °C8 km/h16 km/h23.21015 hPa0.0 mm
18/08/2022 12:4022.7 °C66 %16.0 °C8 km/hNNO15 km/h22.71015 hPa0.0 mm
18/08/2022 12:3021.7 °C70 %16.0 °C9 km/hONO19 km/h21.71015 hPa0.0 mm
18/08/2022 12:1021.6 °C70 %15.8 °C8 km/hONO18 km/h21.61015 hPa0.0 mm
18/08/2022 12:0021.2 °C71 %15.7 °C7 km/hNO16 km/h21.21015 hPa0.0 mm
18/08/2022 11:4021.3 °C72 %16.0 °C6 km/hNNO18 km/h21.31015 hPa0.0 mm
18/08/2022 11:3020.3 °C76 %16.0 °C5 km/hNO13 km/h20.31015 hPa0.0 mm
18/08/2022 11:1019.9 °C80 %16.4 °C5 km/hO13 km/h19.91016 hPa0.0 mm
18/08/2022 11:0018.8 °C83 %15.9 °C5 km/hONO11 km/h18.81016 hPa0.0 mm
18/08/2022 10:4017.7 °C87 %15.5 °C5 km/hOSO11 km/h17.71016 hPa0.0 mm
18/08/2022 10:3017.0 °C89 %15.2 °C6 km/hO10 km/h17.01016 hPa0.0 mm
18/08/2022 10:1016.7 °C89 %14.9 °C6 km/hO11 km/h16.71015 hPa0.0 mm
18/08/2022 10:0016.8 °C89 %15.0 °C6 km/hO11 km/h16.81015 hPa0.0 mm
18/08/2022 09:4016.4 °C91 %14.9 °C6 km/hO13 km/h16.41015 hPa0.0 mm
18/08/2022 09:3016.2 °C90 %14.5 °C4 km/hONO13 km/h16.21015 hPa0.0 mm
18/08/2022 09:1016.2 °C91 %14.7 °C4 km/hO13 km/h16.21015 hPa0.0 mm
18/08/2022 09:0015.9 °C91 %14.5 °C4 km/hO11 km/h15.91015 hPa0.0 mm
18/08/2022 08:1015.3 °C92 %14.0 °C3 km/hSSO6 km/h15.31015 hPa0.0 mm
18/08/2022 08:0015.3 °C92 %14.0 °C3 km/hSO6 km/h15.31015 hPa0.0 mm
18/08/2022 07:4015.3 °C92 %14.0 °C3 km/hOSO6 km/h15.31015 hPa0.0 mm
18/08/2022 07:1015.1 °C92 %13.8 °C3 km/hSO5 km/h15.11014 hPa0.0 mm
18/08/2022 05:1015.4 °C89 %13.6 °C4 km/hSO8 km/h15.41014 hPa0.0 mm
18/08/2022 04:4015.5 °C89 %13.7 °C4 km/hOSO11 km/h15.51014 hPa0.0 mm
18/08/2022 04:1015.7 °C89 %13.9 °C3 km/hOSO8 km/h15.71014 hPa0.0 mm
18/08/2022 03:0016.3 °C88 %14.3 °C3 km/hOSO6 km/h16.31014 hPa0.0 mm
18/08/2022 02:1016.7 °C89 %14.8 °C4 km/hSSO8 km/h16.71014 hPa0.0 mm
18/08/2022 01:4016.8 °C90 %15.1 °C4 km/hSSO10 km/h16.81014 hPa3.2 mm
18/08/2022 00:0017.9 °C86 %15.5 °C4 km/hSSE8 km/h17.91013 hPa3.2 mm


Minima :

Température : 15.1 °C
Humidité : 51 %
Point de rosée : 13.6 °C
Vent moyen : 3 km/h
Windchill : 15.1
Pression atm. : 1013 hPa
Maxima :

Température : 25.0 °C
Humidité : 92 %
Point de rosée : 16.4 °C
Vent moyen : 9 km/h
Windchill : 25.0
Pression atm. : 1016 hPa
Rafales max : 21 km/h
Cumul de pluie sur 24H : 3.2 mm

LE Blanc est une commune du département Indre (36).
La station météorologique du réseau de l'association la plus proche de Lys-Saint-Georges est celle de Paulnay



Icône Facebook Association Météo Centre Icône Twitter Association Météo Centre Icône Chaîne Youtube Association Météo Centre Icône contact Association Météo Centre Icône Insta Association Météo Centre